Time;durP1;ratioP1;P1;durP2;ratioP2;P2;SDS_P1;SDS_P2;PMS_P1;PMS_P2;Temp;Humidity;BMP_temperature;BMP_pressure;BME280_temperature;BME280_humidity;BME280_pressure;Samples;Min_cycle;Max_cycle;Signal;HPM_P1;HPM_P2
2020/12/21 00:01:22;;;;;;;46.37;26.73;;;2.60;80.40;;;;;;4950426;28;92626;-80
2020/12/21 00:03:48;;;;;;;44.17;25.10;;;2.60;80.20;;;;;;4949845;28;91950;-81
2020/12/21 00:06:15;;;;;;;41.37;23.07;;;2.60;81.30;;;;;;4949499;28;92640;-80
2020/12/21 00:08:41;;;;;;;45.47;25.63;;;2.60;81.70;;;;;;4948621;28;92348;-80
2020/12/21 00:11:08;;;;;;;46.93;26.07;;;2.60;81.40;;;;;;4951202;28;92124;-78
2020/12/21 00:13:42;;;;;;;43.17;25.67;;;2.60;80.70;;;;;;4950955;28;91852;-77
2020/12/21 00:16:11;;;;;;;40.57;23.90;;;2.60;80.60;;;;;;4936367;28;92001;-80
2020/12/21 00:18:37;;;;;;;43.50;25.20;;;2.60;80.40;;;;;;4947719;28;96114;-78
2020/12/21 00:21:04;;;;;;;46.70;25.90;;;2.50;80.20;;;;;;4949806;28;93318;-80
2020/12/21 00:23:30;;;;;;;44.00;23.37;;;2.50;80.40;;;;;;4949299;28;92441;-80
2020/12/21 00:25:56;;;;;;;41.50;22.47;;;2.50;80.90;;;;;;4965110;28;92438;-81
2020/12/21 00:28:22;;;;;;;45.53;24.83;;;2.50;80.80;;;;;;4948537;28;94762;-81
2020/12/21 00:30:48;;;;;;;44.93;24.77;;;2.50;80.40;;;;;;4947738;28;95774;-81
2020/12/21 00:33:13;;;;;;;41.90;24.60;;;2.50;80.30;;;;;;4950491;28;92148;-81
2020/12/21 00:35:42;;;;;;;41.97;24.27;;;2.50;80.00;;;;;;4965859;28;91360;-80
2020/12/21 00:38:09;;;;;;;43.23;24.50;;;2.40;80.40;;;;;;4969418;28;93307;-80
2020/12/21 00:40:35;;;;;;;43.47;23.67;;;2.40;80.20;;;;;;4951085;28;94249;-78
2020/12/21 00:43:02;;;;;;;43.20;25.43;;;2.40;80.10;;;;;;4969522;28;92879;-81
2020/12/21 00:45:27;;;;;;;41.83;24.33;;;2.40;79.90;;;;;;4951836;28;92143;-81
2020/12/21 00:47:53;;;;;;;38.07;21.40;;;2.40;79.90;;;;;;4950379;28;95825;-81
2020/12/21 00:50:19;;;;;;;43.73;23.70;;;2.30;80.70;;;;;;4966936;28;95254;-81
2020/12/21 00:52:45;;;;;;;44.63;23.73;;;2.30;80.30;;;;;;4951440;28;92191;-81
2020/12/21 00:55:11;;;;;;;45.23;23.60;;;2.30;80.90;;;;;;4943664;28;92141;-80
2020/12/21 00:57:37;;;;;;;42.53;23.77;;;2.30;80.50;;;;;;4945329;28;92456;-77
2020/12/21 01:00:07;;;;;;;42.30;24.13;;;2.30;80.60;;;;;;4935563;28;94746;-81
2020/12/21 01:02:33;;;;;;;43.67;22.80;;;2.30;80.50;;;;;;4952132;28;92034;-82
2020/12/21 01:04:59;;;;;;;43.47;22.07;;;2.30;80.60;;;;;;4934569;28;92180;-81
2020/12/21 01:07:24;;;;;;;59.80;27.43;;;2.30;81.20;;;;;;4965933;28;96500;-81
2020/12/21 01:09:50;;;;;;;91.03;38.60;;;2.30;80.60;;;;;;4966822;28;93566;-81
2020/12/21 01:12:16;;;;;;;60.37;26.60;;;2.30;80.50;;;;;;4967944;28;92365;-81
2020/12/21 01:14:42;;;;;;;43.97;24.13;;;2.30;80.50;;;;;;4955759;28;91768;-80
2020/12/21 01:17:09;;;;;;;53.17;24.93;;;2.30;81.00;;;;;;4951053;28;93124;-81
2020/12/21 01:19:35;;;;;;;41.50;22.93;;;2.30;80.30;;;;;;4952528;28;94164;-78
2020/12/21 01:22:01;;;;;;;47.83;23.27;;;2.30;80.70;;;;;;4951895;28;92330;-81
2020/12/21 01:24:27;;;;;;;43.27;23.87;;;2.20;80.90;;;;;;4952508;28;91330;-81
2020/12/21 01:26:53;;;;;;;44.30;23.67;;;2.20;80.20;;;;;;4967694;28;92127;-81
2020/12/21 01:29:19;;;;;;;38.33;22.43;;;2.20;80.10;;;;;;4968398;28;95311;-81
2020/12/21 01:31:44;;;;;;;41.57;22.33;;;2.20;80.20;;;;;;4950763;28;92923;-81
2020/12/21 01:34:12;;;;;;;40.73;23.63;;;2.20;80.30;;;;;;4951988;28;92108;-80
2020/12/21 01:36:39;;;;;;;43.17;23.03;;;2.20;80.00;;;;;;4951203;28;92408;-77
2020/12/21 01:39:05;;;;;;;40.10;21.47;;;2.20;80.30;;;;;;4943304;28;94842;-80
2020/12/21 01:41:31;;;;;;;43.70;23.27;;;2.20;80.50;;;;;;4949702;28;92080;-81
2020/12/21 01:43:57;;;;;;;43.93;23.53;;;2.20;80.20;;;;;;4939937;28;92122;-82
2020/12/21 01:46:24;;;;;;;40.77;23.47;;;2.20;79.80;;;;;;4973758;28;94665;-81
2020/12/21 01:48:51;;;;;;;36.00;20.97;;;2.20;79.30;;;;;;4977114;28;95412;-81
2020/12/21 01:51:24;;;;;;;39.53;21.27;;;2.20;79.70;;;;;;4968290;28;91779;-80
2020/12/21 01:53:51;;;;;;;39.43;19.90;;;2.20;80.10;;;;;;4963072;28;92266;-81
2020/12/21 01:56:18;;;;;;;38.20;21.73;;;2.10;80.30;;;;;;4972558;28;94497;-81
2020/12/21 01:58:45;;;;;;;37.00;20.17;;;2.10;80.20;;;;;;4937770;28;96615;-81
2020/12/21 02:01:12;;;;;;;41.17;20.97;;;2.10;80.60;;;;;;4967834;28;92521;-81
2020/12/21 02:03:40;;;;;;;34.20;20.73;;;2.10;80.90;;;;;;4954451;28;92090;-77
2020/12/21 02:06:06;;;;;;;34.60;19.30;;;2.10;81.90;;;;;;4954941;28;95714;-78
2020/12/21 02:08:32;;;;;;;39.47;21.37;;;2.10;80.80;;;;;;4935730;28;96498;-81
2020/12/21 02:10:58;;;;;;;41.27;22.17;;;2.10;80.00;;;;;;4954843;28;91888;-81
2020/12/21 02:13:24;;;;;;;36.13;20.23;;;2.10;79.50;;;;;;4955417;28;91305;-81
2020/12/21 02:15:50;;;;;;;39.60;22.10;;;2.10;79.90;;;;;;4971434;28;92954;-81
2020/12/21 02:18:16;;;;;;;37.47;21.27;;;2.10;79.60;;;;;;4954709;28;94447;-81
2020/12/21 02:20:41;;;;;;;38.17;21.40;;;2.10;79.50;;;;;;4938192;28;92757;-80
2020/12/21 02:23:07;;;;;;;41.07;23.23;;;2.10;80.10;;;;;;4972568;28;92190;-78
2020/12/21 02:25:33;;;;;;;46.10;23.50;;;2.20;79.80;;;;;;4970702;28;95012;-81
2020/12/21 02:27:59;;;;;;;43.43;22.47;;;2.30;79.20;;;;;;4970200;28;95507;-81
2020/12/21 02:30:25;;;;;;;41.33;24.03;;;2.40;79.40;;;;;;4938696;28;91893;-81
2020/12/21 02:32:50;;;;;;;38.73;21.57;;;2.40;79.80;;;;;;4943348;28;92105;-81
2020/12/21 02:35:16;;;;;;;33.43;19.63;;;2.50;80.10;;;;;;4951847;28;96580;-81
2020/12/21 02:37:42;;;;;;;32.43;19.23;;;2.50;78.90;;;;;;4953593;28;94506;-78
2020/12/21 02:40:08;;;;;;;32.80;19.63;;;2.60;78.90;;;;;;4939996;28;91978;-81
2020/12/21 02:42:34;;;;;;;33.93;18.60;;;2.70;78.60;;;;;;4955981;28;92129;-80
2020/12/21 02:45:01;;;;;;;30.30;18.73;;;2.70;78.70;;;;;;4939089;28;96698;-82
2020/12/21 02:47:26;;;;;;;27.67;18.10;;;2.70;79.20;;;;;;4955353;28;96049;-82
2020/12/21 02:49:52;;;;;;;36.20;20.27;;;2.80;78.90;;;;;;4955266;28;92394;-81
2020/12/21 02:52:18;;;;;;;34.53;18.60;;;2.90;79.50;;;;;;4955815;28;92111;-82
2020/12/21 02:54:46;;;;;;;32.87;19.20;;;2.90;79.80;;;;;;4971089;28;92409;-81
2020/12/21 02:57:12;;;;;;;27.70;18.53;;;2.90;79.40;;;;;;4954702;28;94987;-81
2020/12/21 02:59:38;;;;;;;28.70;18.07;;;3.00;79.30;;;;;;4954588;28;91980;-78
2020/12/21 03:02:04;;;;;;;32.37;19.43;;;3.00;79.30;;;;;;4955833;28;91424;-81
2020/12/21 03:04:30;;;;;;;32.23;18.57;;;3.00;79.80;;;;;;4955284;28;95337;-81
2020/12/21 03:06:56;;;;;;;31.40;19.33;;;3.10;80.00;;;;;;4954857;28;97283;-82
2020/12/21 03:09:22;;;;;;;30.00;19.93;;;3.10;80.00;;;;;;4955702;28;93489;-81
2020/12/21 03:11:48;;;;;;;29.67;18.70;;;3.20;81.00;;;;;;4955861;28;91998;-81
2020/12/21 03:14:14;;;;;;;31.93;18.93;;;3.20;80.70;;;;;;4957596;28;94953;-81
2020/12/21 03:16:39;;;;;;;30.07;18.63;;;3.30;81.00;;;;;;4958905;28;95028;-77
2020/12/21 03:19:06;;;;;;;28.47;17.97;;;3.30;80.30;;;;;;4965547;28;91145;-79
2020/12/21 03:21:32;;;;;;;34.03;19.57;;;3.30;80.10;;;;;;4968680;28;91480;-80
2020/12/21 03:23:58;;;;;;;37.73;19.93;;;3.40;80.50;;;;;;4966440;28;91946;-82
2020/12/21 03:26:26;;;;;;;30.63;19.13;;;3.40;80.70;;;;;;4954811;28;91460;-81
2020/12/21 03:28:51;;;;;;;34.20;18.97;;;3.40;80.90;;;;;;4954742;28;92587;-81
2020/12/21 03:31:17;;;;;;;31.33;18.67;;;3.40;81.30;;;;;;4972098;28;92123;-82
2020/12/21 03:33:43;;;;;;;33.17;19.73;;;3.40;81.20;;;;;;4971631;28;93340;-81
2020/12/21 03:36:09;;;;;;;31.77;18.07;;;3.50;81.00;;;;;;4950745;28;94341;-81
2020/12/21 03:38:35;;;;;;;36.83;20.80;;;3.50;81.00;;;;;;4952408;28;92354;-81
2020/12/21 03:41:01;;;;;;;33.97;20.13;;;3.50;81.20;;;;;;4954861;28;92556;-81
2020/12/21 03:43:27;;;;;;;35.70;20.43;;;3.50;82.10;;;;;;4962261;28;94701;-81
2020/12/21 03:45:54;;;;;;;32.73;19.57;;;3.50;81.80;;;;;;4963127;28;92327;-79
2020/12/21 03:48:20;;;;;;;36.87;22.30;;;3.60;81.70;;;;;;4964091;28;92073;-80
2020/12/21 03:50:46;;;;;;;39.13;21.23;;;3.60;81.40;;;;;;4948300;28;91780;-78
2020/12/21 03:53:12;;;;;;;35.97;20.13;;;3.60;81.20;;;;;;4964624;28;92085;-79
2020/12/21 03:55:38;;;;;;;34.30;19.63;;;3.70;81.50;;;;;;4962525;28;94594;-78
2020/12/21 03:58:03;;;;;;;34.13;20.07;;;3.80;80.70;;;;;;4942517;28;92897;-82
2020/12/21 04:00:29;;;;;;;37.23;22.23;;;3.80;80.90;;;;;;4957730;28;92006;-81
2020/12/21 04:02:55;;;;;;;37.17;20.50;;;3.80;80.70;;;;;;4955691;28;92121;-82
2020/12/21 04:05:21;;;;;;;33.27;20.93;;;3.90;80.60;;;;;;4955214;28;94322;-82
2020/12/21 04:07:47;;;;;;;33.60;20.37;;;3.90;80.70;;;;;;4960824;28;91878;-81
2020/12/21 04:10:13;;;;;;;33.37;19.60;;;3.80;80.90;;;;;;4946186;28;91988;-78
2020/12/21 04:12:39;;;;;;;32.73;20.67;;;3.90;80.60;;;;;;4945327;28;94741;-81
2020/12/21 04:15:05;;;;;;;35.77;20.53;;;3.90;80.40;;;;;;4952217;28;94748;-81
2020/12/21 04:17:31;;;;;;;34.97;21.07;;;3.90;80.60;;;;;;4961678;28;92594;-81
2020/12/21 04:19:57;;;;;;;39.43;21.80;;;3.90;80.60;;;;;;4971825;28;91972;-81
2020/12/21 04:22:23;;;;;;;39.37;23.80;;;3.90;80.70;;;;;;4962687;28;95800;-81
2020/12/21 04:24:49;;;;;;;36.20;22.70;;;3.90;80.90;;;;;;4962268;28;92122;-81
2020/12/21 04:27:14;;;;;;;39.20;22.60;;;3.90;81.00;;;;;;4972674;28;91907;-81
2020/12/21 04:29:40;;;;;;;38.80;22.30;;;3.90;80.90;;;;;;4951833;28;92089;-77
2020/12/21 04:32:06;;;;;;;40.30;24.00;;;3.90;81.00;;;;;;4951141;28;96822;-81
2020/12/21 04:34:32;;;;;;;35.43;22.53;;;4.00;81.10;;;;;;4953182;28;92300;-81
2020/12/21 04:36:58;;;;;;;35.93;21.80;;;4.00;81.10;;;;;;4949624;28;92668;-81
2020/12/21 04:39:24;;;;;;;38.27;22.87;;;4.00;80.80;;;;;;4950603;28;91964;-81
2020/12/21 04:41:55;;;;;;;39.00;23.97;;;4.00;80.70;;;;;;4949657;28;95987;-81
2020/12/21 04:44:21;;;;;;;38.13;23.33;;;4.00;81.00;;;;;;4950643;28;93041;-82
2020/12/21 04:46:52;;;;;;;40.43;24.40;;;4.00;81.00;;;;;;4932525;28;92605;-81
2020/12/21 04:49:18;;;;;;;36.17;22.83;;;4.00;81.00;;;;;;4950498;28;91993;-81
2020/12/21 04:51:48;;;;;;;39.87;23.87;;;4.10;81.00;;;;;;4948542;28;96101;-77
2020/12/21 04:54:14;;;;;;;40.83;23.93;;;4.10;80.80;;;;;;4933627;28;94112;-81
2020/12/21 04:56:41;;;;;;;42.00;23.27;;;4.10;80.90;;;;;;4951510;28;91957;-79
2020/12/21 04:59:11;;;;;;;40.77;23.60;;;4.10;80.80;;;;;;4933300;28;92075;-81
2020/12/21 05:01:37;;;;;;;46.07;26.17;;;4.10;80.90;;;;;;4935420;28;96434;-78
2020/12/21 05:04:04;;;;;;;40.67;24.37;;;4.10;80.90;;;;;;4934876;28;94681;-82
2020/12/21 05:06:30;;;;;;;39.30;23.77;;;4.10;81.00;;;;;;4950918;28;92073;-82
2020/12/21 05:09:14;;;;;;;39.90;24.53;;;4.10;81.10;;;;;;4949883;28;92152;-82
2020/12/21 05:11:40;;;;;;;37.30;23.17;;;4.10;81.20;;;;;;4933658;28;95821;-81
2020/12/21 05:14:07;;;;;;;42.37;24.77;;;4.10;81.20;;;;;;4933886;28;95604;-81
2020/12/21 05:16:33;;;;;;;49.03;27.40;;;4.10;81.30;;;;;;4934529;28;92199;-81
2020/12/21 05:18:59;;;;;;;41.63;23.23;;;4.20;81.20;;;;;;4951375;28;91799;-81
2020/12/21 05:21:29;;;;;;;39.53;25.50;;;4.20;81.30;;;;;;4935478;28;94505;-81
2020/12/21 05:23:59;;;;;;;41.23;22.87;;;4.20;81.40;;;;;;4934552;28;95663;-82
2020/12/21 05:26:33;;;;;;;36.67;22.20;;;4.20;81.30;;;;;;4954306;28;91870;-81
2020/12/21 05:28:59;;;;;;;40.73;23.40;;;4.20;81.00;;;;;;4955404;28;91463;-81
2020/12/21 05:31:26;;;;;;;36.40;21.90;;;4.30;81.00;;;;;;4941618;28;94655;-81
2020/12/21 05:36:23;;;;;;;35.83;23.37;;;4.30;81.20;;;;;;4962697;28;92961;-78
2020/12/21 05:39:04;;;;;;;31.70;21.53;;;4.30;81.10;;;;;;5046650;22;93593;-78
2020/12/21 05:41:31;;;;;;;39.67;23.73;;;4.30;81.00;;;;;;4947531;28;94801;-79
2020/12/21 05:44:04;;;;;;;35.53;21.83;;;4.40;81.20;;;;;;5406535;23;93666;-79
2020/12/21 05:49:21;;;;;;;39.90;23.03;;;4.40;81.00;;;;;;4952265;28;93648;-82
2020/12/21 05:51:49;;;;;;;35.10;21.67;;;4.40;81.10;;;;;;4932409;28;91970;-80
2020/12/21 05:54:16;;;;;;;38.63;22.13;;;4.40;81.30;;;;;;4947344;28;93852;-82
2020/12/21 05:56:44;;;;;;;33.83;20.87;;;4.40;81.30;;;;;;4953800;28;92485;-79
2020/12/21 05:59:14;;;;;;;39.93;23.70;;;4.40;81.20;;;;;;4953475;28;91875;-81
2020/12/21 06:01:40;;;;;;;36.93;21.70;;;4.40;81.20;;;;;;4935884;28;96036;-82
2020/12/21 06:04:06;;;;;;;37.53;22.00;;;4.40;81.40;;;;;;4953081;28;92653;-82
2020/12/21 06:06:33;;;;;;;33.07;21.47;;;4.40;81.60;;;;;;4937138;28;91870;-82
2020/12/21 06:09:03;;;;;;;30.73;19.70;;;4.40;81.40;;;;;;4951453;28;92030;-81
2020/12/21 06:11:34;;;;;;;33.77;20.33;;;4.50;81.60;;;;;;4952335;28;92210;-82
2020/12/21 06:14:15;;;;;;;32.33;20.13;;;4.50;81.30;;;;;;4952026;28;92020;-82
2020/12/21 06:16:42;;;;;;;40.90;23.17;;;4.50;81.20;;;;;;4935365;28;92280;-82
2020/12/21 06:19:10;;;;;;;37.97;20.87;;;4.50;81.40;;;;;;4933211;28;91379;-80
2020/12/21 06:21:40;;;;;;;39.57;22.43;;;4.60;81.30;;;;;;4929494;28;95246;-81
2020/12/21 06:24:25;;;;;;;38.80;22.63;;;4.60;81.50;;;;;;4952875;28;92007;-82
2020/12/21 06:26:53;;;;;;;37.13;21.77;;;4.60;81.60;;;;;;4955263;28;92862;-82
2020/12/21 06:29:21;;;;;;;36.20;21.30;;;4.60;81.40;;;;;;4947867;28;92105;-80
2020/12/21 06:31:49;;;;;;;34.73;20.77;;;4.60;81.40;;;;;;4946415;28;91955;-82
2020/12/21 06:34:30;;;;;;;39.50;23.03;;;4.60;81.40;;;;;;4957098;28;91962;-82
2020/12/21 06:37:19;;;;;;;37.50;22.13;;;4.60;81.30;;;;;;4955700;28;91958;-82
2020/12/21 06:39:45;;;;;;;36.20;22.07;;;4.60;81.30;;;;;;4939918;28;92147;-82
2020/12/21 06:42:14;;;;;;;42.37;24.93;;;4.60;81.50;;;;;;4941839;28;94566;-81
2020/12/21 06:44:42;;;;;;;42.50;25.83;;;4.70;81.20;;;;;;4943822;28;94386;-79
2020/12/21 06:51:10;;;;;;;38.87;24.33;;;4.60;81.60;;;;;;5982819;22;93934;31
2020/12/21 06:53:35;;;;;;;39.93;23.93;;;4.70;81.60;;;;;;4952288;28;94562;-77
2020/12/21 06:56:13;;;;;;;43.13;24.57;;;4.70;81.60;;;;;;4955045;28;93281;-81
2020/12/21 06:58:39;;;;;;;39.13;24.27;;;4.70;81.70;;;;;;4952653;28;91867;-78
2020/12/21 07:01:05;;;;;;;44.03;25.40;;;4.70;81.80;;;;;;4955494;28;92034;-81
2020/12/21 07:03:31;;;;;;;44.23;25.97;;;4.80;81.80;;;;;;4945630;28;95660;-81
2020/12/21 07:06:01;;;;;;;47.03;28.07;;;4.80;81.70;;;;;;4932881;28;94961;-81
2020/12/21 07:08:27;;;;;;;46.43;27.03;;;4.80;81.50;;;;;;4955615;28;91989;-81
2020/12/21 07:10:57;;;;;;;49.43;28.00;;;4.80;81.50;;;;;;4955611;28;91683;-81
2020/12/21 07:13:24;;;;;;;49.03;27.67;;;4.90;81.60;;;;;;4954713;28;95168;-81
2020/12/21 07:15:50;;;;;;;52.00;29.00;;;4.90;81.50;;;;;;4972090;28;92740;-82
2020/12/21 07:18:16;;;;;;;48.20;27.17;;;4.90;81.50;;;;;;4963795;28;93570;-81
2020/12/21 07:20:43;;;;;;;45.93;26.63;;;4.90;81.30;;;;;;4951027;28;92014;-81
2020/12/21 07:23:10;;;;;;;47.37;27.03;;;4.90;81.50;;;;;;4953119;28;96399;-79
2020/12/21 07:25:36;;;;;;;52.47;26.73;;;5.00;81.60;;;;;;4941345;28;91992;-80
2020/12/21 07:28:02;;;;;;;49.43;27.23;;;5.00;81.40;;;;;;4948324;28;91656;-80
2020/12/21 07:30:28;;;;;;;44.67;25.87;;;5.10;81.00;;;;;;4954733;28;91906;-79
2020/12/21 07:32:54;;;;;;;49.27;26.17;;;5.10;81.00;;;;;;4938862;28;94225;-81
2020/12/21 07:35:20;;;;;;;44.50;25.53;;;5.10;81.10;;;;;;4955437;28;92133;-80
2020/12/21 07:37:49;;;;;;;40.77;25.53;;;5.10;80.60;;;;;;4929762;28;92069;-80
2020/12/21 07:40:23;;;;;;;47.40;25.33;;;5.20;80.50;;;;;;4970793;28;92753;-81
2020/12/21 07:42:52;;;;;;;45.30;26.33;;;5.20;80.90;;;;;;4956929;28;92955;-81
2020/12/21 07:45:20;;;;;;;42.30;25.37;;;5.20;80.50;;;;;;4956017;28;95390;-81
2020/12/21 07:47:46;;;;;;;46.27;27.13;;;5.30;80.80;;;;;;4958019;28;92650;-80
2020/12/21 07:50:13;;;;;;;47.30;26.73;;;5.30;80.90;;;;;;4952153;28;92128;-82
2020/12/21 07:52:39;;;;;;;44.77;25.57;;;5.30;80.80;;;;;;4952518;28;92078;-78
2020/12/21 07:55:09;;;;;;;42.77;25.83;;;5.30;80.80;;;;;;4938831;28;94596;-81
2020/12/21 07:57:36;;;;;;;43.93;26.20;;;5.30;80.70;;;;;;4963064;28;92433;-82
2020/12/21 08:00:03;;;;;;;40.77;25.30;;;5.30;80.90;;;;;;4934263;28;91311;-81
2020/12/21 08:02:32;;;;;;;39.40;24.67;;;5.40;81.10;;;;;;4950152;28;92311;-81
2020/12/21 08:04:58;;;;;;;43.00;27.03;;;5.40;81.20;;;;;;4957630;28;95173;-82
2020/12/21 08:07:29;;;;;;;42.23;26.63;;;5.40;81.30;;;;;;4955329;28;92964;-82
2020/12/21 08:09:55;;;;;;;42.63;27.17;;;5.40;81.30;;;;;;4956304;28;92149;-81
2020/12/21 08:14:59;;;;;;;41.27;27.00;;;5.40;81.00;;;;;;4981877;22;94074;-79
2020/12/21 08:17:28;;;;;;;43.10;26.10;;;5.50;80.50;;;;;;5013827;22;93644;-81
2020/12/21 08:19:56;;;;;;;41.50;26.83;;;5.50;81.10;;;;;;5606324;22;93961;-82
2020/12/21 08:22:23;;;;;;;46.30;28.20;;;5.60;80.20;;;;;;5163450;22;95004;-81
2020/12/21 08:25:11;;;;;;;39.63;25.53;;;5.60;79.30;;;;;;4955570;28;94669;-81
2020/12/21 08:30:23;;;;;;;41.30;26.10;;;5.70;78.90;;;;;;5290137;22;94307;-75
2020/12/21 08:32:52;;;;;;;48.47;29.63;;;5.70;79.20;;;;;;4960738;28;94210;-72
2020/12/21 08:35:28;;;;;;;43.80;27.53;;;5.70;79.40;;;;;;4974410;28;97304;-72
2020/12/21 08:38:11;;;;;;;47.87;29.70;;;5.80;79.70;;;;;;4963502;28;93523;-72
2020/12/21 08:40:37;;;;;;;49.70;27.57;;;5.80;79.70;;;;;;4977162;28;92417;-74
2020/12/21 08:43:03;;;;;;;38.80;22.17;;;5.90;79.00;;;;;;4963052;28;93498;-76
2020/12/21 08:45:29;;;;;;;43.37;25.63;;;5.90;78.00;;;;;;4961690;28;93076;-77
2020/12/21 08:47:54;;;;;;;51.67;27.27;;;5.90;77.90;;;;;;4963516;28;91864;-76
2020/12/21 08:50:20;;;;;;;33.37;20.90;;;5.90;77.70;;;;;;4967760;28;91544;-76
2020/12/21 08:52:49;;;;;;;34.60;19.73;;;5.90;77.50;;;;;;4977590;28;96437;-77
2020/12/21 08:55:15;;;;;;;31.63;20.20;;;5.90;77.50;;;;;;4950003;28;96110;-76
2020/12/21 08:57:41;;;;;;;38.63;25.53;;;5.90;78.00;;;;;;4958107;28;93807;-76
2020/12/21 09:00:07;;;;;;;44.07;27.43;;;6.00;78.00;;;;;;4956239;28;92150;-78
2020/12/21 09:02:33;;;;;;;48.73;28.53;;;6.00;78.40;;;;;;4958584;28;96531;-79
2020/12/21 09:04:59;;;;;;;53.67;32.23;;;6.00;79.00;;;;;;4969202;28;96732;-76
2020/12/21 09:07:25;;;;;;;52.17;31.60;;;6.10;79.10;;;;;;4966198;28;92217;-77
2020/12/21 09:09:51;;;;;;;55.40;33.70;;;6.10;79.00;;;;;;4969041;28;92337;-76
2020/12/21 09:12:17;;;;;;;58.87;34.03;;;6.10;78.80;;;;;;4960445;28;96284;-76
2020/12/21 09:14:43;;;;;;;53.17;34.07;;;6.10;78.70;;;;;;4964210;28;93790;-75
2020/12/21 09:17:09;;;;;;;49.30;30.87;;;6.00;79.10;;;;;;4962817;28;92116;-76
2020/12/21 09:19:35;;;;;;;54.17;33.77;;;6.00;79.10;;;;;;4971369;28;92184;-76
2020/12/21 09:22:00;;;;;;;51.57;31.17;;;6.00;79.30;;;;;;4967874;28;93883;-76
2020/12/21 09:24:26;;;;;;;47.93;29.73;;;6.00;79.30;;;;;;4952224;28;97176;-79
2020/12/21 09:26:52;;;;;;;52.90;31.63;;;5.90;79.40;;;;;;4969121;28;92117;-78
2020/12/21 09:29:18;;;;;;;50.17;32.00;;;5.90;79.80;;;;;;4955361;28;93750;-78
2020/12/21 09:31:44;;;;;;;56.53;32.27;;;6.00;80.10;;;;;;4969685;28;93747;-78
2020/12/21 09:34:09;;;;;;;54.83;32.53;;;6.00;80.10;;;;;;4957274;28;93372;-78
2020/12/21 09:36:36;;;;;;;54.27;32.60;;;6.00;80.00;;;;;;4957036;28;92628;-79
2020/12/21 09:39:02;;;;;;;49.60;30.47;;;6.10;80.20;;;;;;4957374;28;91617;-78
2020/12/21 09:41:28;;;;;;;57.43;32.60;;;6.10;80.00;;;;;;4969365;28;93145;-76
2020/12/21 09:43:54;;;;;;;50.30;30.77;;;6.20;79.00;;;;;;4955683;28;95629;-78
2020/12/21 09:46:24;;;;;;;52.27;32.43;;;6.20;79.50;;;;;;4954194;28;92869;-79
2020/12/21 09:48:51;;;;;;;55.50;32.97;;;6.20;78.90;;;;;;4976278;28;92119;-78
2020/12/21 09:51:18;;;;;;;52.03;30.57;;;6.30;79.10;;;;;;4950220;28;96298;-78
2020/12/21 09:53:44;;;;;;;50.40;31.20;;;6.30;79.40;;;;;;4967149;28;92917;-78
2020/12/21 09:56:11;;;;;;;44.33;26.27;;;6.40;79.20;;;;;;4964296;28;92179;-78
2020/12/21 09:58:37;;;;;;;44.23;25.93;;;6.40;78.20;;;;;;4972660;28;92151;-78
2020/12/21 10:01:03;;;;;;;47.37;28.53;;;6.30;78.60;;;;;;4977691;28;96322;-78
2020/12/21 10:03:29;;;;;;;44.27;27.00;;;6.30;78.60;;;;;;4962487;28;94085;-78
2020/12/21 10:05:55;;;;;;;44.93;28.40;;;6.40;78.40;;;;;;4963300;28;92440;-78
2020/12/21 10:08:21;;;;;;;49.57;28.77;;;6.40;78.20;;;;;;4962713;28;92288;-79
2020/12/21 10:10:50;;;;;;;45.33;27.20;;;6.40;78.00;;;;;;4954214;28;97279;-78
2020/12/21 10:13:16;;;;;;;47.97;29.17;;;6.50;78.00;;;;;;4969746;28;97465;-78
2020/12/21 10:15:42;;;;;;;47.77;26.27;;;6.50;77.90;;;;;;4978536;28;92528;-78
2020/12/21 10:18:08;;;;;;;45.63;26.40;;;6.60;77.60;;;;;;4981178;28;92156;-78
2020/12/21 10:20:33;;;;;;;46.70;27.40;;;6.60;77.60;;;;;;4963077;28;93390;-78
2020/12/21 10:23:00;;;;;;;52.03;29.03;;;6.70;77.40;;;;;;4966179;28;96384;-78
2020/12/21 10:25:26;;;;;;;52.50;28.73;;;6.70;77.60;;;;;;4974780;28;92215;-75
2020/12/21 10:27:52;;;;;;;47.27;29.00;;;6.80;77.40;;;;;;4979330;28;91559;-73
2020/12/21 10:30:18;;;;;;;44.20;27.27;;;6.80;77.20;;;;;;4978878;28;92702;-73
2020/12/21 10:32:44;;;;;;;50.27;26.33;;;6.80;76.50;;;;;;4977223;28;96365;-75
2020/12/21 10:35:11;;;;;;;49.13;28.70;;;6.80;76.20;;;;;;4978423;28;93210;-74
2020/12/21 10:37:37;;;;;;;52.33;29.50;;;6.80;76.60;;;;;;4968051;28;92525;-74
2020/12/21 10:40:04;;;;;;;49.33;30.20;;;6.90;76.40;;;;;;4965212;28;95036;-75
2020/12/21 10:42:30;;;;;;;54.77;30.90;;;6.90;76.50;;;;;;4965540;28;92903;-74
2020/12/21 10:44:55;;;;;;;52.50;30.13;;;7.00;76.40;;;;;;4968082;28;92414;-74
2020/12/21 10:47:21;;;;;;;55.87;31.03;;;7.00;76.00;;;;;;4960544;28;92409;-74
2020/12/21 10:49:47;;;;;;;53.90;31.83;;;7.10;76.40;;;;;;4964492;28;93097;-74
2020/12/21 10:52:13;;;;;;;55.33;30.40;;;7.20;75.80;;;;;;4965164;28;94261;-74
2020/12/21 10:54:39;;;;;;;53.87;29.57;;;7.20;75.80;;;;;;4963765;28;92440;-74
2020/12/21 10:57:06;;;;;;;50.37;30.07;;;7.30;74.50;;;;;;4949270;28;92151;-74
2020/12/21 10:59:33;;;;;;;51.27;29.80;;;7.30;74.70;;;;;;4978765;28;97253;-74
2020/12/21 11:01:59;;;;;;;48.50;28.40;;;7.40;74.60;;;;;;4965461;28;95645;-73
2020/12/21 11:04:24;;;;;;;51.00;30.07;;;7.50;73.50;;;;;;4963849;28;92242;-74
2020/12/21 11:06:50;;;;;;;43.70;28.07;;;7.60;73.40;;;;;;4965438;28;92617;-74
2020/12/21 11:09:16;;;;;;;39.10;23.37;;;7.60;73.30;;;;;;4963370;28;93173;-75
2020/12/21 11:11:42;;;;;;;38.83;22.70;;;7.70;72.50;;;;;;4976503;28;92439;-77
2020/12/21 11:14:08;;;;;;;33.47;20.77;;;7.70;72.00;;;;;;4977212;28;91973;-75
2020/12/21 11:16:35;;;;;;;36.97;22.27;;;7.70;71.80;;;;;;4961332;28;91477;-77
2020/12/21 11:19:01;;;;;;;34.80;22.07;;;7.70;71.20;;;;;;4952284;28;96612;-80
2020/12/21 11:21:27;;;;;;;37.07;19.93;;;7.70;71.20;;;;;;4991213;28;94613;-80
2020/12/21 11:23:52;;;;;;;36.17;21.13;;;7.70;71.50;;;;;;4964205;28;92983;-76
2020/12/21 11:26:19;;;;;;;36.97;20.67;;;7.60;71.50;;;;;;4965041;28;92371;-76
2020/12/21 11:28:46;;;;;;;35.00;19.97;;;7.60;71.00;;;;;;4968605;28;96995;-74
2020/12/21 11:31:16;;;;;;;35.20;21.43;;;7.50;71.00;;;;;;4983618;28;95841;-76
2020/12/21 11:33:43;;;;;;;29.97;19.33;;;7.50;71.70;;;;;;4963067;28;92672;-79
2020/12/21 11:36:09;;;;;;;32.53;20.23;;;7.50;71.60;;;;;;4958725;28;92620;-79
2020/12/21 11:38:35;;;;;;;40.97;22.70;;;7.50;72.50;;;;;;4973873;28;96056;-79
2020/12/21 11:41:01;;;;;;;41.83;22.87;;;7.50;72.00;;;;;;4990968;28;96450;-79
2020/12/21 11:43:26;;;;;;;27.87;18.60;;;7.50;72.00;;;;;;4963642;28;92066;-78
2020/12/21 11:45:52;;;;;;;38.17;23.30;;;7.50;72.10;;;;;;4977484;28;92133;-79
2020/12/21 11:48:18;;;;;;;55.13;27.73;;;7.50;71.90;;;;;;4982534;28;97442;-78
2020/12/21 11:50:44;;;;;;;43.37;24.93;;;7.40;72.40;;;;;;4963304;28;97398;-78
2020/12/21 11:53:10;;;;;;;49.63;26.93;;;7.40;72.40;;;;;;4975620;28;91873;-79
2020/12/21 11:55:36;;;;;;;45.80;26.93;;;7.40;72.80;;;;;;4977293;28;91938;-78
2020/12/21 11:58:01;;;;;;;40.90;21.43;;;7.40;72.90;;;;;;4976511;28;96830;-77
2020/12/21 12:00:27;;;;;;;35.23;19.43;;;7.40;72.70;;;;;;4959528;28;96222;-77
2020/12/21 12:02:53;;;;;;;34.13;21.00;;;7.40;72.60;;;;;;4959666;28;92093;-77
2020/12/21 12:05:19;;;;;;;35.10;20.43;;;7.40;73.00;;;;;;4976991;28;91391;-77
2020/12/21 12:07:45;;;;;;;38.37;23.00;;;7.40;73.00;;;;;;4975032;28;96244;-77
2020/12/21 12:10:10;;;;;;;37.47;21.77;;;7.50;72.80;;;;;;4982087;28;93019;-78
2020/12/21 12:12:36;;;;;;;31.40;19.93;;;7.50;73.30;;;;;;4963276;28;93074;-77
2020/12/21 12:15:02;;;;;;;29.27;18.60;;;7.50;73.30;;;;;;4970079;28;92277;-78
2020/12/21 12:17:28;;;;;;;46.07;27.33;;;7.60;72.60;;;;;;4957396;28;96907;-78
2020/12/21 12:19:54;;;;;;;32.83;20.47;;;7.60;73.20;;;;;;4957281;28;96131;-80
2020/12/21 12:22:20;;;;;;;32.53;20.53;;;7.70;73.00;;;;;;4958484;28;92535;-78
2020/12/21 12:24:46;;;;;;;32.40;21.03;;;7.70;72.20;;;;;;4973216;28;92246;-78
2020/12/21 12:27:12;;;;;;;32.93;20.30;;;7.80;72.00;;;;;;4957634;28;97322;-78
2020/12/21 12:29:38;;;;;;;30.10;20.33;;;7.80;72.30;;;;;;4964934;28;92598;-78
2020/12/21 12:32:03;;;;;;;29.73;19.10;;;7.80;72.50;;;;;;4962199;28;91997;-78
2020/12/21 12:34:29;;;;;;;33.20;20.67;;;7.80;72.30;;;;;;4968424;28;92144;-78
2020/12/21 12:36:55;;;;;;;33.33;20.73;;;7.80;72.20;;;;;;4992786;28;96749;-78
2020/12/21 12:39:21;;;;;;;29.13;18.27;;;7.80;72.60;;;;;;4993753;28;92510;-78
2020/12/21 12:41:47;;;;;;;25.27;17.80;;;7.80;72.40;;;;;;4992284;28;92228;-78
2020/12/21 12:44:12;;;;;;;32.83;21.77;;;7.90;72.30;;;;;;4976111;28;93157;-78
2020/12/21 12:46:38;;;;;;;31.60;19.70;;;7.90;72.50;;;;;;4961098;28;96479;-78
2020/12/21 12:49:07;;;;;;;41.43;26.00;;;7.90;72.50;;;;;;4965908;28;96762;-79